createdAt,value
2024-01-11T00:01:47.646Z,98400.59
2024-01-11T00:04:14.383Z,98409.91
2024-01-11T00:06:44.488Z,98397.16
2024-01-11T00:09:11.058Z,98402.25
2024-01-11T00:11:37.663Z,98399.53
2024-01-11T00:14:04.299Z,98404.63
2024-01-11T00:16:30.942Z,98395.34
2024-01-11T00:18:57.610Z,98401.25
2024-01-11T00:21:24.205Z,98403.88
2024-01-11T00:23:50.889Z,98403.88
2024-01-11T00:26:17.487Z,98407.34
2024-01-11T00:28:44.099Z,98409.81
2024-01-11T00:31:11.418Z,98412.28
2024-01-11T00:33:38.144Z,98412.28
2024-01-11T00:36:05.079Z,98413.09
2024-01-11T00:38:31.811Z,98409.66
2024-01-11T00:40:58.479Z,98398.53
2024-01-11T00:43:25.047Z,98387.97
2024-01-11T00:45:51.554Z,98403.56
2024-01-11T00:48:18.160Z,98405.22
2024-01-11T00:50:44.888Z,98406.94
2024-01-11T00:53:12.329Z,98401.06
2024-01-11T00:55:39.006Z,98400.28
2024-01-11T00:58:05.518Z,98379.13
2024-01-11T01:00:32.086Z,98402.81
2024-01-11T01:02:58.634Z,98398.53
2024-01-11T01:05:25.341Z,98401.06
2024-01-11T01:07:52.084Z,98401.78
2024-01-11T01:10:18.647Z,98400.91
2024-01-11T01:12:45.191Z,98403.47
2024-01-11T01:15:11.829Z,98411.88
2024-01-11T01:17:38.549Z,98411.03
2024-01-11T01:20:05.821Z,98413.59
2024-01-11T01:22:32.409Z,98417.00
2024-01-11T01:24:58.960Z,98417.06
2024-01-11T01:27:25.658Z,98415.41
2024-01-11T01:29:52.217Z,98426.47
2024-01-11T01:32:18.997Z,98431.59
2024-01-11T01:34:47.871Z,98434.91
2024-01-11T01:37:15.231Z,98426.41
2024-01-11T01:39:42.217Z,98427.19
2024-01-11T01:42:10.844Z,98429.63
2024-01-11T01:44:37.697Z,98437.25
2024-01-11T01:47:04.624Z,98435.53
2024-01-11T01:49:31.276Z,98438.06
2024-01-11T01:51:57.804Z,98430.34
2024-01-11T01:54:24.306Z,98435.53
2024-01-11T01:56:50.890Z,98438.16
2024-01-11T01:59:17.554Z,98423.78
2024-01-11T02:01:44.149Z,98427.06
2024-01-11T02:04:10.748Z,98434.81
2024-01-11T02:06:37.486Z,98436.53
2024-01-11T02:09:07.168Z,98427.06
2024-01-11T02:11:33.814Z,98430.41
2024-01-11T02:14:00.573Z,98434.63
2024-01-11T02:16:27.481Z,98431.19
2024-01-11T02:18:54.197Z,98437.09
2024-01-11T02:21:20.755Z,98429.38
2024-01-11T02:24:13.611Z,98436.22
2024-01-11T02:26:59.770Z,98435.44
2024-01-11T02:29:26.775Z,98434.63
2024-01-11T02:31:53.418Z,98441.50
2024-01-11T02:34:20.067Z,98444.16
2024-01-11T02:36:46.638Z,98438.16
2024-01-11T02:39:13.303Z,98440.63
2024-01-11T02:41:39.866Z,98440.63
2024-01-11T02:44:06.427Z,98432.88
2024-01-11T02:46:33.129Z,98434.47
2024-01-11T02:48:59.730Z,98435.34
2024-01-11T02:51:26.349Z,98434.38
2024-01-11T02:53:52.875Z,98425.63
2024-01-11T02:56:19.485Z,98431.94
2024-01-11T02:58:46.024Z,98423.31
2024-01-11T03:01:12.582Z,98425.16
2024-01-11T03:03:39.239Z,98412.50
2024-01-11T03:06:05.879Z,98415.91
2024-01-11T03:08:32.602Z,98421.13
2024-01-11T03:10:59.231Z,98426.97
2024-01-11T03:13:25.752Z,98423.56
2024-01-11T03:15:52.275Z,98417.59
2024-01-11T03:18:18.958Z,98414.97
2024-01-11T03:20:45.718Z,98412.44
2024-01-11T03:23:12.351Z,98399.19
2024-01-11T03:25:38.908Z,98405.56
2024-01-11T03:28:05.539Z,98396.97
2024-01-11T03:30:32.116Z,98391.88
2024-01-11T03:32:58.779Z,98401.25
2024-01-11T03:35:25.443Z,98383.84
2024-01-11T03:37:52.652Z,98396.25
2024-01-11T03:40:19.186Z,98389.56
2024-01-11T03:42:45.722Z,98395.44
2024-01-11T03:45:12.383Z,98401.41
2024-01-11T03:47:39.136Z,98390.25
2024-01-11T03:50:06.353Z,98389.41
2024-01-11T03:52:32.908Z,98397.81
2024-01-11T03:54:59.472Z,98396.97
2024-01-11T03:57:26.353Z,98395.19
2024-01-11T03:59:52.885Z,98401.91
2024-01-11T04:02:19.468Z,98393.38
2024-01-11T04:04:45.971Z,98387.47
2024-01-11T04:07:12.642Z,98380.72
2024-01-11T04:09:39.694Z,98377.38
2024-01-11T04:12:07.098Z,98380.00
2024-01-11T04:14:33.765Z,98383.44
2024-01-11T04:17:00.350Z,98382.63
2024-01-11T04:19:27.042Z,98392.72
2024-01-11T04:21:53.708Z,98393.63
2024-01-11T04:24:20.217Z,98389.25
2024-01-11T04:26:46.765Z,98405.41
2024-01-11T04:29:13.335Z,98404.53
2024-01-11T04:31:39.905Z,98396.72
2024-01-11T04:34:06.492Z,98392.50
2024-01-11T04:36:33.122Z,98407.00
2024-01-11T04:38:59.639Z,98402.69
2024-01-11T04:41:26.296Z,98404.47
2024-01-11T04:43:52.940Z,98399.44
2024-01-11T04:46:21.298Z,98402.06
2024-01-11T04:48:48.192Z,98405.56
2024-01-11T04:51:14.959Z,98403.72
2024-01-11T04:53:41.753Z,98400.38
2024-01-11T04:56:09.026Z,98400.28
2024-01-11T04:58:41.169Z,98399.44
2024-01-11T05:01:07.781Z,98394.34
2024-01-11T05:03:34.516Z,98389.16
2024-01-11T05:06:01.248Z,98390.91
2024-01-11T05:08:29.060Z,98388.28
2024-01-11T05:10:55.961Z,98391.63
2024-01-11T05:13:22.794Z,98401.03
2024-01-11T05:15:49.537Z,98404.47
2024-01-11T05:18:16.137Z,98406.19
2024-01-11T05:20:42.765Z,98407.94
2024-01-11T05:23:09.575Z,98410.56
2024-01-11T05:25:36.263Z,98409.78
2024-01-11T05:28:03.183Z,98403.00
2024-01-11T05:30:34.138Z,98404.69
2024-01-11T05:33:00.904Z,98413.13
2024-01-11T05:35:28.796Z,98420.00
2024-01-11T05:37:58.451Z,98431.75
2024-01-11T05:40:25.161Z,98432.66
2024-01-11T05:42:51.697Z,98438.53
2024-01-11T05:45:20.881Z,98440.22
2024-01-11T05:47:51.027Z,98435.13
2024-01-11T05:50:18.003Z,98435.97
2024-01-11T05:52:44.507Z,98438.59
2024-01-11T05:55:11.061Z,98438.59
2024-01-11T05:57:37.766Z,98447.22
2024-01-11T06:00:05.870Z,98448.09
2024-01-11T06:02:32.967Z,98446.41
2024-01-11T06:04:59.686Z,98443.00
2024-01-11T06:07:26.278Z,98440.47
2024-01-11T06:09:52.851Z,98440.47
2024-01-11T06:12:19.430Z,98446.31
2024-01-11T06:14:46.032Z,98440.38
2024-01-11T06:17:12.858Z,98432.56
2024-01-11T06:19:39.752Z,98433.25
2024-01-11T06:22:06.784Z,98434.16
2024-01-11T06:24:33.462Z,98395.44
2024-01-11T06:27:00.069Z,98449.28
2024-01-11T06:29:26.646Z,98451.75
2024-01-11T06:31:53.195Z,98442.28
2024-01-11T06:34:19.740Z,98443.03
2024-01-11T06:36:46.279Z,98448.94
2024-01-11T06:39:13.775Z,98458.25
2024-01-11T06:41:40.509Z,98437.38
2024-01-11T06:44:07.155Z,98449.91
2024-01-11T06:46:33.743Z,98444.75
2024-01-11T06:49:00.455Z,98451.56
2024-01-11T06:51:27.112Z,98445.69
2024-01-11T06:53:53.648Z,98450.00
2024-01-11T06:56:23.638Z,98447.53
2024-01-11T06:58:50.817Z,98447.63
2024-01-11T07:01:17.387Z,98456.13
2024-01-11T07:03:53.000Z,98454.53
2024-01-11T07:06:19.700Z,98458.75
2024-01-11T07:08:46.620Z,98457.09
2024-01-11T07:11:13.298Z,98458.81
2024-01-11T07:13:39.853Z,98471.56
2024-01-11T07:16:06.852Z,98472.38
2024-01-11T07:18:33.542Z,98478.19
2024-01-11T07:21:00.556Z,98469.56
2024-01-11T07:23:27.907Z,98460.97
2024-01-11T07:25:54.514Z,98472.94
2024-01-11T07:28:26.036Z,98477.13
2024-01-11T07:30:55.525Z,98487.31
2024-01-11T07:33:22.404Z,98490.69
2024-01-11T07:35:49.162Z,98498.25
2024-01-11T07:38:15.783Z,98504.19
2024-01-11T07:40:43.755Z,98503.34
2024-01-11T07:43:10.807Z,98508.44
2024-01-11T07:45:37.368Z,98517.81
2024-01-11T07:48:04.964Z,98516.94
2024-01-11T07:50:31.918Z,98512.31
2024-01-11T07:52:58.533Z,98528.19
2024-01-11T07:55:25.378Z,98534.25
2024-01-11T07:57:52.011Z,98543.63
2024-01-11T08:00:18.637Z,98543.72
2024-01-11T08:02:45.296Z,98537.81
2024-01-11T08:05:12.384Z,98542.06
2024-01-11T08:07:39.022Z,98549.88
2024-01-11T08:10:07.728Z,98548.09
2024-01-11T08:12:34.402Z,98543.00
2024-01-11T08:15:01.014Z,98547.25
2024-01-11T08:17:27.621Z,98537.03
2024-01-11T08:19:54.209Z,98536.25
2024-01-11T08:22:25.810Z,98539.69
2024-01-11T08:24:53.776Z,98545.63
2024-01-11T08:27:20.467Z,98546.50
2024-01-11T08:29:47.961Z,98553.34
2024-01-11T08:32:23.875Z,98550.72
2024-01-11T08:35:00.842Z,98555.06
2024-01-11T08:37:27.530Z,98546.50
2024-01-11T08:39:54.084Z,98543.06
2024-01-11T08:42:20.647Z,98539.75
2024-01-11T08:44:48.582Z,98528.69
2024-01-11T08:47:16.096Z,98528.69
2024-01-11T08:49:42.829Z,98512.00
2024-01-11T08:52:09.464Z,98533.84
2024-01-11T08:54:36.116Z,98520.38
2024-01-11T08:57:02.671Z,98526.38
2024-01-11T08:59:29.317Z,98534.09
2024-01-11T09:02:02.658Z,98546.97
2024-01-11T09:04:37.587Z,98548.81
2024-01-11T09:07:04.576Z,98546.34
2024-01-11T09:09:32.959Z,98545.56
2024-01-11T09:12:01.237Z,98546.44
2024-01-11T09:14:27.854Z,98543.97
2024-01-11T09:16:54.514Z,98538.06
2024-01-11T09:19:21.272Z,98532.09
2024-01-11T09:21:47.860Z,98534.63
2024-01-11T09:24:14.553Z,98543.09
2024-01-11T09:26:41.194Z,98533.44
2024-01-11T09:29:07.854Z,98526.91
2024-01-11T09:31:34.474Z,98528.59
2024-01-11T09:34:01.280Z,98538.78
2024-01-11T09:36:27.885Z,98550.66
2024-01-11T09:38:54.538Z,98537.81
2024-01-11T09:41:21.138Z,98528.53
2024-01-11T09:43:47.685Z,98528.53
2024-01-11T09:46:14.360Z,98512.16
2024-01-11T09:48:41.877Z,98524.28
2024-01-11T09:51:11.019Z,98513.72
2024-01-11T09:53:39.706Z,98519.97
2024-01-11T09:56:12.711Z,98508.03
2024-01-11T09:58:40.046Z,98506.28
2024-01-11T10:01:11.616Z,98500.41
2024-01-11T10:03:38.285Z,98506.28
2024-01-11T10:06:05.406Z,98505.41
2024-01-11T10:08:32.017Z,98491.59
2024-01-11T10:10:58.605Z,98481.91
2024-01-11T10:13:29.699Z,98506.19
2024-01-11T10:16:09.212Z,98498.81
2024-01-11T10:18:35.981Z,98510.19
2024-01-11T10:21:03.756Z,98517.00
2024-01-11T10:23:30.908Z,98513.63
2024-01-11T10:25:58.527Z,98503.53
2024-01-11T10:28:28.042Z,98500.13
2024-01-11T10:30:55.516Z,98481.47
2024-01-11T10:33:22.913Z,98479.84
2024-01-11T10:35:50.881Z,98481.59
2024-01-11T10:38:17.607Z,98490.13
2024-01-11T10:40:44.232Z,98493.53
2024-01-11T10:43:14.529Z,98501.25
2024-01-11T10:45:41.162Z,98507.25
2024-01-11T10:48:09.198Z,98489.47
2024-01-11T10:50:37.082Z,98482.72
2024-01-11T10:53:15.969Z,98482.56
2024-01-11T10:55:43.292Z,98485.09
2024-01-11T10:58:09.898Z,98496.97
2024-01-11T11:00:36.771Z,98495.22
2024-01-11T11:03:04.152Z,98502.13
2024-01-11T11:05:31.804Z,98508.03
2024-01-11T11:07:59.021Z,98508.97
2024-01-11T11:10:27.089Z,98506.44
2024-01-11T11:12:53.657Z,98491.78
2024-01-11T11:15:21.053Z,98482.56
2024-01-11T11:17:47.730Z,98467.19
2024-01-11T11:20:14.738Z,98457.84
2024-01-11T11:22:41.877Z,98459.53
2024-01-11T11:25:14.385Z,98460.03
2024-01-11T11:27:40.942Z,98474.75
2024-01-11T11:30:08.053Z,98485.69
2024-01-11T11:32:44.299Z,98495.13
2024-01-11T11:35:11.039Z,98488.16
2024-01-11T11:37:38.759Z,98476.13
2024-01-11T11:40:07.137Z,98424.47
2024-01-11T11:42:35.432Z,98476.06
2024-01-11T11:45:02.062Z,98475.16
2024-01-11T11:47:35.206Z,98470.94
2024-01-11T11:50:08.789Z,98465.84
2024-01-11T11:52:36.481Z,98475.31
2024-01-11T11:55:03.103Z,98463.38
2024-01-11T11:57:29.837Z,98456.59
2024-01-11T11:59:59.752Z,98458.38
2024-01-11T12:02:27.015Z,98455.91
2024-01-11T12:04:54.592Z,98450.81
2024-01-11T12:07:22.168Z,98449.03
2024-01-11T12:09:48.763Z,98455.03
2024-01-11T12:12:16.650Z,98466.09
2024-01-11T12:14:43.917Z,98465.13
2024-01-11T12:17:10.615Z,98464.09
2024-01-11T12:19:37.333Z,98461.28
2024-01-11T12:22:04.065Z,98450.09
2024-01-11T12:24:31.716Z,98440.25
2024-01-11T12:27:01.474Z,98433.50
2024-01-11T12:29:40.152Z,98424.66
2024-01-11T12:32:12.978Z,98428.16
2024-01-11T12:34:39.684Z,98422.72
2024-01-11T12:37:06.919Z,98426.84
2024-01-11T12:39:33.511Z,98440.38
2024-01-11T12:42:00.057Z,98444.59
2024-01-11T12:44:26.603Z,98424.13
2024-01-11T12:46:53.847Z,98434.69
2024-01-11T12:49:21.234Z,98430.75
2024-01-11T12:51:47.963Z,98435.44
2024-01-11T12:54:15.631Z,98428.16
2024-01-11T12:56:45.813Z,98428.56
2024-01-11T12:59:13.414Z,98425.25
2024-01-11T13:01:40.954Z,98432.63
2024-01-11T13:04:11.494Z,98441.38
2024-01-11T13:06:38.200Z,98440.66
2024-01-11T13:09:05.300Z,98430.50
2024-01-11T13:11:31.989Z,98420.59
2024-01-11T13:14:02.191Z,98411.31
2024-01-11T13:16:28.819Z,98408.84
2024-01-11T13:18:55.458Z,98397.19
2024-01-11T13:21:22.421Z,98380.44
2024-01-11T13:23:49.337Z,98380.72
2024-01-11T13:26:16.344Z,98375.88
2024-01-11T13:28:43.038Z,98386.31
2024-01-11T13:31:11.185Z,98397.59
2024-01-11T13:33:38.174Z,98405.50
2024-01-11T13:36:05.320Z,98419.34
2024-01-11T13:38:31.950Z,98405.91
2024-01-11T13:40:58.542Z,98406.22
2024-01-11T13:43:25.094Z,98409.81
2024-01-11T13:45:51.736Z,98415.06
2024-01-11T13:48:18.378Z,98403.47
2024-01-11T13:50:45.177Z,98431.31
2024-01-11T13:53:11.928Z,98446.91
2024-01-11T13:55:40.164Z,98439.38
2024-01-11T13:58:07.350Z,98447.19
2024-01-11T14:00:34.059Z,98449.81
2024-01-11T14:03:00.927Z,98452.44
2024-01-11T14:05:27.658Z,98447.19
2024-01-11T14:07:59.739Z,98445.50
2024-01-11T14:10:28.048Z,98438.81
2024-01-11T14:12:55.105Z,98433.72
2024-01-11T14:15:21.736Z,98423.63
2024-01-11T14:17:49.212Z,98421.16
2024-01-11T14:20:16.488Z,98423.72
2024-01-11T14:22:48.152Z,98428.00
2024-01-11T14:25:14.690Z,98427.16
2024-01-11T14:27:42.354Z,98440.72
2024-01-11T14:30:10.643Z,98437.41
2024-01-11T14:32:38.335Z,98439.97
2024-01-11T14:35:06.889Z,98440.81
2024-01-11T14:37:38.493Z,98444.16
2024-01-11T14:40:08.415Z,98439.72
2024-01-11T14:42:34.960Z,98438.09
2024-01-11T14:45:01.641Z,98437.34
2024-01-11T14:47:28.519Z,98430.53
2024-01-11T14:49:55.505Z,98437.41
2024-01-11T14:52:22.148Z,98433.19
2024-01-11T14:54:49.021Z,98425.53
2024-01-11T14:57:16.172Z,98429.06
2024-01-11T14:59:43.721Z,98432.50
2024-01-11T15:02:10.909Z,98441.06
2024-01-11T15:04:37.629Z,98446.25
2024-01-11T15:07:04.567Z,98460.03
2024-01-11T15:09:31.374Z,98467.75
2024-01-11T15:11:58.152Z,98461.00
2024-01-11T15:14:24.801Z,98456.06
2024-01-11T15:16:51.437Z,98450.19
2024-01-11T15:19:18.212Z,98440.97
2024-01-11T15:21:49.239Z,98439.34
2024-01-11T15:24:20.324Z,98444.53
2024-01-11T15:26:47.929Z,98444.69
2024-01-11T15:29:15.743Z,98445.66
2024-01-11T15:31:46.025Z,98455.03
2024-01-11T15:34:13.881Z,98458.56
2024-01-11T15:36:41.328Z,98466.28
2024-01-11T15:39:20.316Z,98469.81
2024-01-11T15:41:55.279Z,98468.19
2024-01-11T15:44:23.420Z,98473.38
2024-01-11T15:46:50.188Z,98477.69
2024-01-11T15:49:16.720Z,98477.78
2024-01-11T15:51:43.347Z,98462.34
2024-01-11T15:54:09.881Z,98467.75
2024-01-11T15:56:36.456Z,98474.59
2024-01-11T15:59:04.649Z,98473.00
2024-01-11T16:01:34.034Z,98473.88
2024-01-11T16:04:01.257Z,98476.41
2024-01-11T16:06:28.063Z,98483.28
2024-01-11T16:08:54.766Z,98480.81
2024-01-11T16:11:22.540Z,98480.00
2024-01-11T16:13:50.419Z,98474.03
2024-01-11T16:16:17.034Z,98478.44
2024-01-11T16:18:44.009Z,98475.88
2024-01-11T16:21:10.762Z,98475.09
2024-01-11T16:23:37.357Z,98476.81
2024-01-11T16:26:05.060Z,98487.91
2024-01-11T16:28:31.616Z,98492.13
2024-01-11T16:30:58.282Z,98498.97
2024-01-11T16:33:28.659Z,98511.81
2024-01-11T16:35:59.042Z,98513.56
2024-01-11T16:38:26.453Z,98522.94
2024-01-11T16:40:55.352Z,98504.41
2024-01-11T16:43:22.651Z,98504.53
2024-01-11T16:45:50.199Z,98498.63
2024-01-11T16:48:18.475Z,98496.16
2024-01-11T16:50:45.993Z,98498.00
2024-01-11T16:53:13.174Z,98507.47
2024-01-11T16:55:42.048Z,98504.94
2024-01-11T16:58:09.787Z,98512.59
2024-01-11T17:00:37.445Z,98505.00
2024-01-11T17:03:05.020Z,98514.41
2024-01-11T17:05:31.905Z,98514.41
2024-01-11T17:07:58.637Z,98505.00
2024-01-11T17:10:25.353Z,98491.47
2024-01-11T17:12:51.960Z,98489.72
2024-01-11T17:15:18.728Z,98486.28
2024-01-11T17:17:45.439Z,98489.72
2024-01-11T17:20:14.534Z,98498.19
2024-01-11T17:22:41.221Z,98492.09
2024-01-11T17:25:08.130Z,98497.13
2024-01-11T17:27:34.806Z,98507.25
2024-01-11T17:30:01.504Z,98519.00
2024-01-11T17:32:28.519Z,98522.16
2024-01-11T17:34:56.921Z,98511.97
2024-01-11T17:37:23.678Z,98526.38
2024-01-11T17:39:50.251Z,98507.66
2024-01-11T17:42:17.051Z,98503.44
2024-01-11T17:44:44.294Z,98504.25
2024-01-11T17:47:11.038Z,98501.63
2024-01-11T17:49:42.684Z,98510.03
2024-01-11T17:52:09.721Z,98521.91
2024-01-11T17:54:36.239Z,98529.47
2024-01-11T17:57:02.861Z,98535.34
2024-01-11T17:59:29.427Z,98535.19
2024-01-11T18:01:59.091Z,98540.28
2024-01-11T18:04:25.819Z,98531.69
2024-01-11T18:06:52.565Z,98533.44
2024-01-11T18:09:19.152Z,98541.81
2024-01-11T18:11:46.175Z,98532.31
2024-01-11T18:14:13.206Z,98532.22
2024-01-11T18:16:40.025Z,98529.66
2024-01-11T18:19:08.778Z,98533.91
2024-01-11T18:21:35.611Z,98533.09
2024-01-11T18:24:02.286Z,98523.81
2024-01-11T18:26:28.957Z,98526.28
2024-01-11T18:28:55.967Z,98537.06
2024-01-11T18:31:23.584Z,98535.06
2024-01-11T18:33:52.893Z,98533.25
2024-01-11T18:36:23.557Z,98528.91
2024-01-11T18:38:50.284Z,98539.19
2024-01-11T18:41:18.094Z,98531.13
2024-01-11T18:43:44.684Z,98532.13
2024-01-11T18:46:11.266Z,98531.69
2024-01-11T18:48:38.787Z,98529.06
2024-01-11T18:51:07.873Z,98526.44
2024-01-11T18:53:34.649Z,98530.66
2024-01-11T18:56:01.255Z,98537.47
2024-01-11T18:58:28.477Z,98534.16
2024-01-11T19:00:55.614Z,98529.16
2024-01-11T19:03:22.996Z,98531.78
2024-01-11T19:05:49.998Z,98527.56
2024-01-11T19:08:17.286Z,98531.00
2024-01-11T19:10:43.881Z,98527.63
2024-01-11T19:13:10.469Z,98528.53
2024-01-11T19:15:37.479Z,98525.97
2024-01-11T19:18:04.921Z,98524.41
2024-01-11T19:20:31.755Z,98526.16
2024-01-11T19:22:59.913Z,98525.25
2024-01-11T19:25:26.721Z,98531.16
2024-01-11T19:27:56.080Z,98538.88
2024-01-11T19:30:22.960Z,98522.81
2024-01-11T19:32:49.811Z,98521.94
2024-01-11T19:35:16.622Z,98525.44
2024-01-11T19:37:43.231Z,98526.31
2024-01-11T19:40:09.909Z,98529.75
2024-01-11T19:42:36.519Z,98527.91
2024-01-11T19:45:03.370Z,98533.97
2024-01-11T19:47:30.282Z,98551.97
2024-01-11T19:49:57.632Z,98548.53
2024-01-11T19:52:24.170Z,98548.53
2024-01-11T19:54:50.784Z,98549.41
2024-01-11T19:57:17.376Z,98545.13
2024-01-11T19:59:44.086Z,98548.44
2024-01-11T20:02:11.972Z,98550.22
2024-01-11T20:04:38.743Z,98558.81
2024-01-11T20:07:05.641Z,98561.34
2024-01-11T20:09:33.420Z,98559.84
2024-01-11T20:12:00.045Z,98555.75
2024-01-11T20:14:28.221Z,98566.78
2024-01-11T20:16:54.980Z,98561.69
2024-01-11T20:19:21.685Z,98566.88
2024-01-11T20:21:48.363Z,98571.09
2024-01-11T20:24:14.912Z,98577.16
2024-01-11T20:26:41.640Z,98584.88
2024-01-11T20:29:08.226Z,98581.56
2024-01-11T20:31:34.811Z,98579.09
2024-01-11T20:34:03.014Z,98573.19
2024-01-11T20:36:30.468Z,98582.50
2024-01-11T20:38:57.210Z,98584.34
2024-01-11T20:41:24.602Z,98576.63
2024-01-11T20:43:51.338Z,98569.84
2024-01-11T20:46:21.929Z,98573.91
2024-01-11T20:48:48.812Z,98565.28
2024-01-11T20:51:18.870Z,98570.38
2024-01-11T20:53:49.045Z,98572.03
2024-01-11T20:56:15.883Z,98578.03
2024-01-11T20:58:45.418Z,98580.75
2024-01-11T21:01:12.658Z,98581.63
2024-01-11T21:03:39.378Z,98581.63
2024-01-11T21:06:06.352Z,98586.81
2024-01-11T21:08:33.560Z,98581.81
2024-01-11T21:11:00.170Z,98591.13
2024-01-11T21:13:27.511Z,98585.22
2024-01-11T21:15:54.625Z,98580.19
2024-01-11T21:18:21.548Z,98578.53
2024-01-11T21:20:48.545Z,98584.63
2024-01-11T21:23:15.288Z,98577.75
2024-01-11T21:25:42.047Z,98582.91
2024-01-11T21:28:09.201Z,98566.28
2024-01-11T21:30:35.776Z,98578.28
2024-01-11T21:33:02.443Z,98579.94
2024-01-11T21:35:29.220Z,98579.84
2024-01-11T21:37:55.888Z,98584.97
2024-01-11T21:40:22.548Z,98585.03
2024-01-11T21:42:49.139Z,98585.94
2024-01-11T21:45:15.832Z,98594.47
2024-01-11T21:47:42.570Z,98586.00
2024-01-11T21:50:10.667Z,98578.38
2024-01-11T21:52:37.574Z,98575.03
2024-01-11T21:55:04.395Z,98569.94
2024-01-11T21:57:31.061Z,98575.09
2024-01-11T21:59:57.672Z,98571.78
2024-01-11T22:02:25.033Z,98569.25
2024-01-11T22:04:51.656Z,98574.34
2024-01-11T22:07:18.735Z,98574.41
2024-01-11T22:09:45.659Z,98569.84
2024-01-11T22:12:12.274Z,98575.75
2024-01-11T22:14:40.247Z,98579.84
2024-01-11T22:17:08.005Z,98574.75
2024-01-11T22:19:34.714Z,98570.47
2024-01-11T22:22:04.169Z,98561.25
2024-01-11T22:24:30.783Z,98567.22
2024-01-11T22:26:57.396Z,98572.38
2024-01-11T22:29:24.032Z,98561.34
2024-01-11T22:31:50.613Z,98549.13
2024-01-11T22:34:17.218Z,98552.00
2024-01-11T22:36:47.364Z,98552.00
2024-01-11T22:39:13.979Z,98556.50
2024-01-11T22:41:40.738Z,98550.59
2024-01-11T22:44:07.453Z,98543.94
2024-01-11T22:46:34.312Z,98552.44
2024-01-11T22:49:05.325Z,98548.06
2024-01-11T22:51:32.146Z,98541.91
2024-01-11T22:53:59.262Z,98533.25
2024-01-11T22:56:26.056Z,98534.00
2024-01-11T22:58:52.674Z,98526.28
2024-01-11T23:01:19.366Z,98528.84
2024-01-11T23:03:46.047Z,98532.34
2024-01-11T23:06:12.739Z,98534.09
2024-01-11T23:08:39.383Z,98534.97
2024-01-11T23:11:05.909Z,98544.38
2024-01-11T23:13:32.464Z,98542.72
2024-01-11T23:15:59.040Z,98547.88
2024-01-11T23:18:25.724Z,98546.22
2024-01-11T23:20:52.441Z,98549.63
2024-01-11T23:23:19.147Z,98548.88
2024-01-11T23:25:45.774Z,98548.94
2024-01-11T23:28:12.662Z,98543.84
2024-01-11T23:30:39.314Z,98546.22
2024-01-11T23:33:06.144Z,98546.06
2024-01-11T23:35:32.787Z,98556.94
2024-01-11T23:37:59.347Z,98556.94
2024-01-11T23:40:25.838Z,98559.41
2024-01-11T23:42:53.375Z,98563.81
2024-01-11T23:45:20.129Z,98557.03
2024-01-11T23:47:46.802Z,98563.09
2024-01-11T23:50:13.567Z,98569.06
2024-01-11T23:52:40.194Z,98571.72
2024-01-11T23:55:07.016Z,98569.16
2024-01-11T23:57:33.563Z,98571.78
